Time;durP1;ratioP1;P1;durP2;ratioP2;P2;SDS_P1;SDS_P2;PMS_P1;PMS_P2;Temp;Humidity;BMP_temperature;BMP_pressure;BME280_temperature;BME280_humidity;BME280_pressure;Samples;Min_cycle;Max_cycle;Signal;HPM_P1;HPM_P2
2023/06/20 00:01:48;;;;;;;19.33;15.80;;;;;;;20.52;100.00;101000.72;5263140;28;20032;-67
2023/06/20 00:04:19;;;;;;;19.38;15.63;;;;;;;20.57;100.00;101002.88;5263959;28;20024;-67
2023/06/20 00:06:50;;;;;;;19.42;15.45;;;;;;;20.50;100.00;101001.91;5267086;28;20348;-67
2023/06/20 00:09:22;;;;;;;17.35;15.05;;;;;;;20.48;100.00;100999.41;5267029;28;20084;-67
2023/06/20 00:11:53;;;;;;;17.88;14.63;;;;;;;20.52;100.00;101000.72;5271843;28;20136;-67
2023/06/20 00:14:24;;;;;;;17.60;14.85;;;;;;;20.50;100.00;101000.06;5270850;28;20024;-67
2023/06/20 00:16:58;;;;;;;16.75;14.50;;;;;;;20.51;100.00;101001.72;5264699;28;20028;-67
2023/06/20 00:19:31;;;;;;;18.40;14.05;;;;;;;20.45;100.00;100990.78;5265990;28;20024;-67
2023/06/20 00:22:03;;;;;;;16.40;14.50;;;;;;;20.49;100.00;100992.09;5267865;28;20062;-67
2023/06/20 00:24:34;;;;;;;16.67;14.55;;;;;;;20.46;100.00;100993.31;5265132;28;20036;-67
2023/06/20 00:27:05;;;;;;;17.85;14.57;;;;;;;20.41;100.00;100992.16;5265075;28;20029;-67
2023/06/20 00:29:37;;;;;;;17.42;14.02;;;;;;;20.43;100.00;100995.53;5262752;28;20059;-67
2023/06/20 00:32:08;;;;;;;17.10;15.18;;;;;;;20.41;100.00;101001.13;5260481;28;20611;-68
2023/06/20 00:34:39;;;;;;;15.77;14.02;;;;;;;20.39;100.00;100986.91;5265688;28;20403;-67
2023/06/20 00:37:11;;;;;;;19.10;14.43;;;;;;;20.40;100.00;100991.28;5260923;28;20413;-67
2023/06/20 00:39:42;;;;;;;18.08;14.52;;;;;;;20.37;100.00;100994.38;5260668;28;20097;-67
2023/06/20 00:42:23;;;;;;;17.05;14.27;;;;;;;20.49;100.00;100987.50;5264521;28;20631;-67
2023/06/20 00:44:54;;;;;;;15.88;14.27;;;;;;;20.37;100.00;100997.09;5266705;28;20471;-65
2023/06/20 00:47:26;;;;;;;16.60;14.18;;;;;;;20.45;100.00;100990.78;5265097;28;20032;-65
2023/06/20 00:49:57;;;;;;;16.00;14.35;;;;;;;20.43;100.00;100987.41;5267141;28;20031;-67
2023/06/20 00:52:29;;;;;;;15.38;13.75;;;;;;;20.35;100.00;100989.13;5263847;28;20106;-66
2023/06/20 00:55:00;;;;;;;20.20;14.88;;;;;;;20.43;100.00;100977.41;5268094;28;20105;-67
2023/06/20 00:57:35;;;;;;;17.15;14.48;;;;;;;20.34;100.00;100979.28;5262074;28;20533;-67
2023/06/20 01:00:11;;;;;;;17.00;13.63;;;;;;;20.29;100.00;100979.00;5270156;28;20070;-66
2023/06/20 01:02:46;;;;;;;16.35;14.65;;;;;;;20.30;100.00;100969.00;5261464;28;20024;-66
2023/06/20 01:05:18;;;;;;;16.73;13.88;;;;;;;20.29;100.00;100962.75;5266690;28;20036;-66
2023/06/20 01:07:58;;;;;;;16.85;14.20;;;;;;;20.30;100.00;100963.59;5263511;28;20053;-67
2023/06/20 01:11:17;;;;;;;17.55;14.25;;;;;;;20.44;100.00;100967.38;5261393;28;20059;-68
2023/06/20 01:14:09;;;;;;;16.50;13.68;;;;;;;20.33;100.00;100971.38;5220722;28;20114;-67
2023/06/20 01:16:43;;;;;;;17.23;14.10;;;;;;;20.36;100.00;100971.84;5221096;28;20507;-67
2023/06/20 01:19:33;;;;;;;17.70;14.57;;;;;;;20.35;100.00;100967.44;5257012;28;20067;-68
2023/06/20 01:22:12;;;;;;;16.85;14.20;;;;;;;20.25;100.00;100971.38;5256999;28;20437;-67
2023/06/20 01:24:51;;;;;;;16.33;14.30;;;;;;;20.26;100.00;100975.81;5268004;28;20024;-66
2023/06/20 01:27:27;;;;;;;16.85;13.82;;;;;;;20.24;100.00;100973.25;5265040;28;20028;-66
2023/06/20 01:30:20;;;;;;;18.75;14.52;;;;;;;20.23;100.00;100959.88;5266210;28;20345;-67
2023/06/20 01:32:56;;;;;;;16.08;14.38;;;;;;;20.30;100.00;100960.88;5264186;28;20424;-67
2023/06/20 01:35:30;;;;;;;17.20;14.07;;;;;;;20.17;100.00;100954.19;5265988;28;20043;-66
2023/06/20 01:38:07;;;;;;;16.60;14.05;;;;;;;20.18;100.00;100955.84;5265817;28;20451;-66
2023/06/20 01:40:41;;;;;;;16.05;14.35;;;;;;;20.18;100.00;100949.59;5263830;28;20064;-66
2023/06/20 01:43:13;;;;;;;;;;;;;;;20.33;100.00;100955.09;5263777;28;20129;-67
2023/06/20 01:45:45;;;;;;;17.80;14.35;;;;;;;20.22;100.00;100944.66;5266738;28;19920;-67
2023/06/20 01:48:19;;;;;;;17.30;13.88;;;;;;;20.25;100.00;100944.28;5262221;28;20028;-67
2023/06/20 01:50:52;;;;;;;;;;;;;;;20.34;100.00;100943.22;5264261;28;20171;-67
2023/06/20 01:53:24;;;;;;;15.60;13.52;;;;;;;20.26;100.00;100943.28;5264509;28;20306;-67
2023/06/20 01:55:57;;;;;;;16.48;13.85;;;;;;;20.17;100.00;100934.34;5264631;28;20479;-67
2023/06/20 01:58:31;;;;;;;17.08;14.20;;;;;;;20.11;100.00;100935.06;5262995;28;20105;-67
2023/06/20 02:01:03;;;;;;;16.17;14.07;;;;;;;20.12;100.00;100934.06;5264040;28;20515;-67
2023/06/20 02:03:35;;;;;;;16.25;14.35;;;;;;;20.11;100.00;100930.50;5268230;28;20028;-67
2023/06/20 02:06:08;;;;;;;15.63;13.95;;;;;;;20.20;100.00;100934.00;5268463;28;20033;-67
2023/06/20 02:08:40;;;;;;;16.20;14.43;;;;;;;20.09;100.00;100926.28;5266364;28;20040;-67
2023/06/20 02:11:14;;;;;;;18.73;14.63;;;;;;;20.10;100.00;100934.22;5267541;28;20024;-67
2023/06/20 02:13:48;;;;;;;15.85;14.15;;;;;;;20.14;100.00;100924.72;5266866;28;20112;-67
2023/06/20 02:16:21;;;;;;;;;;;;;;;20.25;100.00;100928.91;5268655;28;20028;-67
2023/06/20 02:18:53;;;;;;;16.48;14.45;;;;;;;20.14;100.00;100927.44;5268731;28;19920;-67
2023/06/20 02:21:28;;;;;;;16.75;14.88;;;;;;;20.13;100.00;100927.59;5267702;28;20367;-67
2023/06/20 02:24:02;;;;;;;16.63;14.73;;;;;;;20.18;100.00;100923.34;5263534;28;20040;-67
2023/06/20 02:26:39;;;;;;;16.45;14.65;;;;;;;20.18;100.00;100925.22;5263453;28;20032;-66
2023/06/20 02:29:12;;;;;;;16.30;14.52;;;;;;;20.10;100.00;100930.69;5268296;28;20762;-66
2023/06/20 02:31:47;;;;;;;19.50;15.38;;;;;;;20.04;100.00;100929.53;5263052;28;20040;-66
2023/06/20 02:34:21;;;;;;;17.70;15.30;;;;;;;20.06;100.00;100930.19;5267555;28;20043;-67
2023/06/20 02:36:55;;;;;;;17.88;15.20;;;;;;;20.04;100.00;100936.78;5266814;28;20158;-66
2023/06/20 02:39:28;;;;;;;16.73;14.85;;;;;;;20.07;100.00;100944.56;5269084;28;20034;-66
2023/06/20 02:41:59;;;;;;;16.55;14.35;;;;;;;20.16;100.00;100935.38;5268295;28;20028;-66
2023/06/20 02:44:31;;;;;;;16.55;14.07;;;;;;;20.07;100.00;100928.31;5265914;28;20102;-67
2023/06/20 02:47:35;;;;;;;17.05;13.65;;;;;;;20.09;100.00;100929.81;5273102;28;20061;-66
2023/06/20 02:50:47;;;;;;;16.95;13.38;;;;;;;20.06;100.00;100927.50;5263730;28;20143;-66
2023/06/20 02:53:29;;;;;;;15.38;13.77;;;;;;;19.90;100.00;100922.97;5262804;28;20466;-67
2023/06/20 02:56:05;;;;;;;14.05;12.35;;;;;;;19.89;100.00;100931.31;5263118;28;20028;-66
2023/06/20 02:58:40;;;;;;;17.25;14.13;;;;;;;19.90;100.00;100936.53;5260646;28;20035;-67
2023/06/20 03:01:18;;;;;;;17.75;13.77;;;;;;;19.98;100.00;100935.63;5262784;28;20249;-67
2023/06/20 03:03:52;;;;;;;14.98;12.88;;;;;;;19.88;100.00;100932.31;5262904;28;20108;-66
2023/06/20 03:06:27;;;;;;;19.63;13.45;;;;;;;19.82;100.00;100924.91;5264461;28;20378;-66
2023/06/20 03:09:03;;;;;;;14.77;12.60;;;;;;;19.83;100.00;100924.72;5262113;28;20048;-66
2023/06/20 03:11:34;;;;;;;15.05;12.35;;;;;;;19.76;100.00;100919.16;5261760;28;20034;-67
2023/06/20 03:14:11;;;;;;;14.77;12.95;;;;;;;19.80;100.00;100921.53;5260296;28;20025;-66
2023/06/20 03:16:42;;;;;;;13.77;12.38;;;;;;;19.74;100.00;100915.78;5262033;28;20043;-66
2023/06/20 03:19:14;;;;;;;13.60;12.20;;;;;;;19.80;100.00;100913.41;5263356;28;20036;-66
2023/06/20 03:21:45;;;;;;;23.83;14.57;;;;;;;19.69;100.00;100909.19;5262627;28;20042;-67
2023/06/20 03:24:17;;;;;;;17.70;13.85;;;;;;;19.64;100.00;100907.00;5262492;28;20137;-66
2023/06/20 03:26:49;;;;;;;15.55;12.77;;;;;;;19.62;100.00;100919.88;5263295;28;20488;-67
2023/06/20 03:29:20;;;;;;;14.18;12.35;;;;;;;19.61;100.00;100929.00;5263693;28;20050;-66
2023/06/20 03:31:51;;;;;;;15.15;12.68;;;;;;;19.59;100.00;100925.63;5262625;28;20070;-67
2023/06/20 03:34:23;;;;;;;13.02;11.57;;;;;;;19.60;100.00;100927.31;5259257;28;20048;-67
2023/06/20 03:36:55;;;;;;;14.98;13.40;;;;;;;19.56;100.00;100926.81;5264105;28;20065;-67
2023/06/20 03:39:26;;;;;;;15.10;13.02;;;;;;;19.49;100.00;100927.69;5260711;28;20131;-67
2023/06/20 03:41:57;;;;;;;14.20;12.70;;;;;;;19.45;100.00;100939.91;5261838;28;20024;-66
2023/06/20 03:44:29;;;;;;;15.60;12.80;;;;;;;19.38;100.00;100950.53;5259312;28;20327;-67
2023/06/20 03:47:00;;;;;;;14.45;12.55;;;;;;;19.37;100.00;100948.88;5262551;28;20020;-66
2023/06/20 03:49:31;;;;;;;17.10;13.82;;;;;;;19.32;100.00;100954.78;5264881;28;20037;-67
2023/06/20 03:52:03;;;;;;;16.15;13.82;;;;;;;19.31;100.00;100960.38;5261567;28;20031;-67
2023/06/20 03:54:35;;;;;;;16.23;13.85;;;;;;;19.27;100.00;100970.72;5266051;28;20118;-66
2023/06/20 03:57:06;;;;;;;16.60;13.93;;;;;;;19.26;100.00;100971.72;5266232;28;20080;-67
2023/06/20 03:59:37;;;;;;;15.75;14.00;;;;;;;19.30;100.00;100969.50;5261813;28;20028;-67
2023/06/20 04:02:09;;;;;;;18.08;14.25;;;;;;;19.17;100.00;100961.91;5259946;28;20050;-67
2023/06/20 04:04:41;;;;;;;16.63;14.57;;;;;;;19.19;100.00;100968.88;5262101;28;20027;-67
2023/06/20 04:07:12;;;;;;;16.05;13.63;;;;;;;19.22;100.00;100973.06;5265753;28;20079;-67
2023/06/20 04:09:45;;;;;;;15.65;13.93;;;;;;;19.16;100.00;100969.19;5260395;28;20027;-66
2023/06/20 04:12:17;;;;;;;16.88;13.73;;;;;;;19.15;100.00;100966.66;5263012;28;20465;-67
2023/06/20 04:14:48;;;;;;;17.48;14.93;;;;;;;19.20;100.00;100962.41;5262647;28;20028;-67
2023/06/20 04:17:21;;;;;;;17.10;14.88;;;;;;;19.28;100.00;100958.03;5258393;28;20083;-67
2023/06/20 04:19:52;;;;;;;15.80;13.68;;;;;;;19.15;100.00;100953.13;5264130;28;20033;-67
2023/06/20 04:22:26;;;;;;;19.20;14.35;;;;;;;19.26;100.00;100952.78;5261772;28;20032;-67
2023/06/20 04:24:58;;;;;;;16.25;14.55;;;;;;;19.25;100.00;100948.38;5263314;28;20084;-67
2023/06/20 04:27:29;;;;;;;17.20;15.50;;;;;;;19.31;100.00;100944.13;5260479;28;20048;-67
2023/06/20 04:30:01;;;;;;;18.13;14.23;;;;;;;19.18;100.00;100934.69;5267755;28;20043;-67
2023/06/20 04:32:33;;;;;;;18.23;15.45;;;;;;;19.20;100.00;100934.53;5259720;28;20131;-66
2023/06/20 04:35:05;;;;;;;16.65;14.57;;;;;;;19.23;100.00;100938.75;5261880;28;20508;-67
2023/06/20 04:37:38;;;;;;;17.80;15.90;;;;;;;19.25;100.00;100940.25;5264995;28;20398;-66
2023/06/20 04:40:11;;;;;;;16.88;15.05;;;;;;;19.36;100.00;100944.47;5261807;28;20119;-67
2023/06/20 04:42:42;;;;;;;19.50;16.00;;;;;;;19.49;100.00;100941.22;5261508;28;20024;-66
2023/06/20 04:45:14;;;;;;;17.92;15.18;;;;;;;19.42;100.00;100930.25;5259838;28;20044;-67
2023/06/20 04:47:50;;;;;;;18.40;15.82;;;;;;;19.48;100.00;100931.41;5258840;28;20029;-66
2023/06/20 04:50:22;;;;;;;18.45;16.35;;;;;;;19.52;100.00;100930.03;5260833;28;20032;-67
2023/06/20 04:52:53;;;;;;;16.92;15.23;;;;;;;19.65;100.00;100929.50;5261418;28;20082;-67
2023/06/20 04:55:25;;;;;;;16.67;13.77;;;;;;;19.66;100.00;100918.50;5263882;28;20036;-67
2023/06/20 04:57:56;;;;;;;16.40;14.68;;;;;;;19.77;100.00;100922.69;5259105;28;20021;-66
2023/06/20 05:00:28;;;;;;;15.88;13.77;;;;;;;19.84;100.00;100922.84;5262323;28;20041;-67
2023/06/20 05:03:01;;;;;;;15.98;13.80;;;;;;;19.96;100.00;100918.72;5260159;28;20031;-67
2023/06/20 05:05:32;;;;;;;15.20;13.70;;;;;;;19.98;100.00;100905.84;5259120;28;20577;-67
2023/06/20 05:08:04;;;;;;;15.57;13.95;;;;;;;20.05;100.00;100912.25;5253059;28;20049;-67
2023/06/20 05:10:35;;;;;;;14.13;12.27;;;;;;;20.20;100.00;100903.38;5267278;28;20111;-67
2023/06/20 05:13:06;;;;;;;12.02;10.73;;;;;;;20.35;100.00;100898.88;5267225;28;20450;-67
2023/06/20 05:15:38;;;;;;;14.30;11.27;;;;;;;20.47;100.00;100900.13;5269409;28;20078;-67
2023/06/20 05:18:09;;;;;;;13.23;11.82;;;;;;;20.54;100.00;100887.53;5273556;28;20086;-66
2023/06/20 05:20:41;;;;;;;14.00;10.68;;;;;;;20.67;100.00;100896.94;5272296;28;20297;-67
2023/06/20 05:23:12;;;;;;;11.18;9.45;;;;;;;20.79;100.00;100894.63;5272349;28;20017;-67
2023/06/20 05:25:43;;;;;;;11.02;8.90;;;;;;;20.94;100.00;100899.06;5272466;28;20479;-67
2023/06/20 05:28:15;;;;;;;12.63;8.55;;;;;;;21.04;100.00;100887.97;5266408;28;20047;-67
2023/06/20 05:30:46;;;;;;;10.43;8.43;;;;;;;21.17;100.00;100890.03;5269318;28;20209;-67
2023/06/20 05:33:18;;;;;;;8.93;7.50;;;;;;;21.29;100.00;100882.28;5261432;28;20041;-67
2023/06/20 05:35:49;;;;;;;8.65;6.38;;;;;;;21.42;100.00;100876.16;5270866;28;20024;-67
2023/06/20 05:38:21;;;;;;;7.82;6.03;;;;;;;21.45;100.00;100873.94;5271261;28;20032;-67
2023/06/20 05:40:54;;;;;;;7.30;5.30;;;;;;;21.54;100.00;100872.00;5269335;28;20028;-67
2023/06/20 05:43:25;;;;;;;7.53;5.60;;;;;;;21.67;100.00;100877.59;5275642;28;20025;-68
2023/06/20 05:45:57;;;;;;;7.45;4.93;;;;;;;21.71;100.00;100872.63;5270075;28;20574;-67
2023/06/20 05:48:30;;;;;;;6.93;5.50;;;;;;;21.85;100.00;100873.63;5280103;28;20771;-67
2023/06/20 05:51:03;;;;;;;7.63;6.03;;;;;;;21.82;100.00;100874.00;5275177;28;20037;-67
2023/06/20 05:53:34;;;;;;;7.23;5.80;;;;;;;21.87;100.00;100879.72;5268766;28;20035;-66
2023/06/20 05:56:05;;;;;;;7.93;6.07;;;;;;;21.88;100.00;100884.09;5263289;28;20657;-67
2023/06/20 05:58:37;;;;;;;7.82;5.80;;;;;;;21.89;100.00;100888.50;5273342;28;20158;-67
2023/06/20 06:01:08;;;;;;;7.80;5.50;;;;;;;21.93;100.00;100901.50;5267636;28;20076;-67
2023/06/20 06:03:39;;;;;;;9.00;5.57;;;;;;;21.99;100.00;100901.78;5273729;28;20025;-67
2023/06/20 06:06:11;;;;;;;7.10;5.45;;;;;;;22.01;100.00;100897.81;5265800;28;20074;-67
2023/06/20 06:08:42;;;;;;;7.75;5.22;;;;;;;21.99;100.00;100909.94;5272484;28;20045;-67
2023/06/20 06:11:14;;;;;;;6.22;4.72;;;;;;;22.04;100.00;100905.59;5265277;28;20052;-67
2023/06/20 06:13:45;;;;;;;6.10;5.05;;;;;;;22.07;100.00;100907.97;5271957;28;20028;-67
2023/06/20 06:16:20;;;;;;;7.30;5.28;;;;;;;22.19;100.00;100899.31;5269763;28;20040;-67
2023/06/20 06:18:51;;;;;;;7.30;5.57;;;;;;;22.28;100.00;100909.03;5265505;28;20060;-67
2023/06/20 06:21:22;;;;;;;7.53;5.43;;;;;;;22.33;100.00;100903.03;5271458;28;20059;-67
2023/06/20 06:23:54;;;;;;;6.53;4.78;;;;;;;22.38;100.00;100906.00;5267098;28;20036;-67
2023/06/20 06:26:25;;;;;;;7.57;5.00;;;;;;;22.46;100.00;100890.41;5266536;28;20115;-67
2023/06/20 06:28:57;;;;;;;6.40;5.75;;;;;;;22.46;100.00;100890.41;5274458;28;20079;-67
2023/06/20 06:31:29;;;;;;;6.45;5.60;;;;;;;22.49;100.00;100891.88;5271384;28;20040;-67
2023/06/20 06:34:03;;;;;;;8.38;5.75;;;;;;;22.56;100.00;100897.41;5275260;28;20482;-67
2023/06/20 06:36:34;;;;;;;6.88;6.13;;;;;;;22.63;100.00;100909.19;5269627;28;20542;-67
2023/06/20 06:39:07;;;;;;;9.07;6.13;;;;;;;22.63;100.00;100917.34;5277508;28;20036;-67
2023/06/20 06:41:39;;;;;;;8.07;6.60;;;;;;;22.64;100.00;100905.41;5276968;28;20028;-67
2023/06/20 06:44:10;;;;;;;8.98;6.40;;;;;;;22.65;100.00;100901.66;5268899;28;20073;-68
2023/06/20 06:46:42;;;;;;;7.75;6.80;;;;;;;22.67;100.00;100899.59;5268816;28;20110;-67
2023/06/20 06:49:13;;;;;;;8.20;6.50;;;;;;;22.67;100.00;100896.88;5273642;28;20035;-67
2023/06/20 06:51:45;;;;;;;9.02;6.40;;;;;;;22.74;100.00;100895.03;5273927;28;20082;-67
2023/06/20 06:54:16;;;;;;;8.07;5.85;;;;;;;22.77;100.00;100897.38;5271548;28;20028;-67
2023/06/20 06:56:47;;;;;;;8.05;6.07;;;;;;;22.82;100.00;100904.94;5268660;28;20036;-67
2023/06/20 06:59:19;;;;;;;9.45;6.82;;;;;;;22.81;100.00;100900.53;5274903;28;20068;-67
2023/06/20 07:01:51;;;;;;;8.48;6.25;;;;;;;22.80;100.00;100904.28;5271684;28;20107;-67
2023/06/20 07:04:22;;;;;;;11.70;6.38;;;;;;;22.92;100.00;100901.88;5279336;28;20500;-68
2023/06/20 07:06:54;;;;;;;7.13;6.25;;;;;;;22.94;100.00;100892.47;5268355;28;20111;-67
2023/06/20 07:09:25;;;;;;;8.57;6.35;;;;;;;22.98;100.00;100901.09;5267580;28;20048;-67
2023/06/20 07:11:56;;;;;;;7.85;6.50;;;;;;;23.04;100.00;100892.16;5270643;28;20037;-67
2023/06/20 07:14:28;;;;;;;7.28;5.75;;;;;;;23.04;100.00;100890.28;5273498;28;20405;-68
2023/06/20 07:17:00;;;;;;;12.30;7.50;;;;;;;23.05;100.00;100888.38;5271198;28;20489;-67
2023/06/20 07:19:31;;;;;;;9.68;6.93;;;;;;;23.05;100.00;100877.50;5275814;28;20549;-67
2023/06/20 07:22:02;;;;;;;10.80;7.43;;;;;;;23.13;100.00;100877.38;5276722;28;20031;-67
2023/06/20 07:24:34;;;;;;;11.75;7.32;;;;;;;23.28;100.00;100872.66;5269421;28;20029;-67
2023/06/20 07:27:05;;;;;;;9.48;6.20;;;;;;;23.32;100.00;100877.66;5274253;28;20115;-67
2023/06/20 07:29:37;;;;;;;7.45;6.00;;;;;;;23.46;100.00;100872.09;5279828;28;20033;-67
2023/06/20 07:32:08;;;;;;;7.88;6.65;;;;;;;23.43;100.00;100872.53;5275775;28;20489;-67
2023/06/20 07:34:40;;;;;;;7.43;5.85;;;;;;;23.50;100.00;100878.00;5271835;28;20054;-67
2023/06/20 07:37:11;;;;;;;8.05;6.07;;;;;;;23.60;100.00;100864.81;5271254;28;20032;-67
2023/06/20 07:39:43;;;;;;;7.85;6.13;;;;;;;23.65;100.00;100858.78;5275209;28;20024;-67
2023/06/20 07:42:14;;;;;;;7.05;6.00;;;;;;;23.73;100.00;100853.16;5272382;28;20028;-67
2023/06/20 07:44:45;;;;;;;6.95;6.00;;;;;;;23.77;100.00;100854.41;5277292;28;20386;-67
2023/06/20 07:47:17;;;;;;;6.90;5.68;;;;;;;23.88;100.00;100859.31;5278278;28;20567;-67
2023/06/20 07:49:48;;;;;;;9.50;5.45;;;;;;;24.04;100.00;100869.00;5277091;28;20376;-67
2023/06/20 07:52:19;;;;;;;6.15;5.25;;;;;;;24.15;100.00;100875.75;5267837;28;20029;-67
2023/06/20 07:54:51;;;;;;;8.18;5.00;;;;;;;24.30;100.00;100883.75;5283433;28;20028;-67
2023/06/20 07:57:22;;;;;;;6.97;6.18;;;;;;;24.33;100.00;100883.31;5266397;28;20025;-67
2023/06/20 07:59:53;;;;;;;6.70;5.47;;;;;;;24.39;100.00;100877.06;5272277;28;20039;-67
2023/06/20 08:02:26;;;;;;;8.40;6.05;;;;;;;24.51;100.00;100879.13;5267162;28;20032;-67
2023/06/20 08:04:58;;;;;;;10.73;6.30;;;;;;;24.62;100.00;100870.34;5285133;28;20111;-67
2023/06/20 08:07:29;;;;;;;9.80;6.53;;;;;;;24.64;100.00;100865.53;5271673;28;20063;-67
2023/06/20 08:10:02;;;;;;;8.00;6.43;;;;;;;24.76;100.00;100871.22;5274785;28;20029;-68
2023/06/20 08:12:34;;;;;;;8.38;6.30;;;;;;;24.71;100.00;100863.66;5258922;28;20060;-67
2023/06/20 08:15:06;;;;;;;7.30;5.90;;;;;;;24.93;100.00;100868.88;5274694;28;20358;-67
2023/06/20 08:17:37;;;;;;;6.30;5.20;;;;;;;24.93;100.00;100871.59;5267591;28;20373;-67
2023/06/20 08:20:09;;;;;;;7.05;5.07;;;;;;;24.96;100.00;100855.66;5266523;28;20061;-67
2023/06/20 08:22:40;;;;;;;7.60;4.85;;;;;;;25.12;100.00;100859.84;5266961;28;20013;-67
2023/06/20 08:25:11;;;;;;;6.55;5.22;;;;;;;25.16;100.00;100857.50;5268454;28;20479;-67
2023/06/20 08:27:43;;;;;;;8.00;5.00;;;;;;;25.23;100.00;100867.38;5270701;28;20384;-67
2023/06/20 08:30:14;;;;;;;8.10;4.80;;;;;;;25.31;100.00;100868.22;5267324;28;20832;-67
2023/06/20 08:32:47;;;;;;;6.10;4.35;;;;;;;25.36;100.00;100868.41;5272252;28;20182;-67
2023/06/20 08:35:19;;;;;;;4.72;4.00;;;;;;;25.43;100.00;100866.50;5273715;28;20500;-67
2023/06/20 08:37:50;;;;;;;6.50;4.40;;;;;;;25.47;100.00;100873.22;5281237;28;20107;-67
2023/06/20 08:40:22;;;;;;;6.40;4.90;;;;;;;25.57;100.00;100859.94;5275164;28;20036;-67
2023/06/20 08:42:56;;;;;;;5.18;4.68;;;;;;;25.66;100.00;100866.00;5273859;28;20020;-67
2023/06/20 08:45:28;;;;;;;6.47;4.22;;;;;;;25.75;100.00;100867.41;5281385;28;20052;-67
2023/06/20 08:47:59;;;;;;;5.18;4.68;;;;;;;25.85;100.00;100868.84;5277187;28;20142;-67
2023/06/20 08:50:32;;;;;;;8.15;5.03;;;;;;;25.96;100.00;100862.72;5263698;28;20016;-67
2023/06/20 08:53:09;;;;;;;6.78;4.47;;;;;;;25.97;100.00;100869.88;5275612;28;20073;-68
2023/06/20 08:55:43;;;;;;;4.90;4.05;;;;;;;26.27;100.00;100867.38;5275924;28;20066;-68
2023/06/20 08:58:14;;;;;;;5.90;4.43;;;;;;;26.08;100.00;100854.66;5266676;28;20043;-68
2023/06/20 09:00:47;;;;;;;5.25;4.20;;;;;;;26.07;100.00;100853.00;5273377;28;20020;-68
2023/06/20 09:03:19;;;;;;;5.30;4.03;;;;;;;26.32;100.00;100844.81;5262637;28;20075;-68
2023/06/20 09:05:50;;;;;;;6.15;3.92;;;;;;;26.20;100.00;100845.53;5269729;28;20111;-67
2023/06/20 09:08:21;;;;;;;6.20;4.72;;;;;;;26.25;100.00;100849.50;5263349;28;20396;-67
2023/06/20 09:11:10;;;;;;;5.95;4.28;;;;;;;26.46;100.00;100851.84;5268343;28;20012;-67
2023/06/20 09:13:41;;;;;;;7.43;4.00;;;;;;;26.55;100.00;100858.72;5274231;28;20024;-68
2023/06/20 09:16:13;;;;;;;5.70;3.88;;;;;;;26.59;100.00;100859.16;5278436;28;20106;-67
2023/06/20 09:18:49;;;;;;;5.95;4.38;;;;;;;26.55;100.00;100858.72;5264714;28;20036;-67
2023/06/20 09:21:21;;;;;;;4.88;3.80;;;;;;;26.87;100.00;100857.88;5270024;28;20035;-67
2023/06/20 09:24:03;;;;;;;5.47;4.30;;;;;;;26.80;100.00;100861.50;5271403;28;20028;-67
2023/06/20 09:26:34;;;;;;;5.65;4.45;;;;;;;26.82;100.00;100872.22;5270030;28;20110;-67
2023/06/20 09:29:10;;;;;;;4.95;4.10;;;;;;;27.06;100.00;100869.66;5274244;28;20077;-67
2023/06/20 09:31:48;;;;;;;4.85;3.83;;;;;;;27.09;100.00;100872.78;5278695;28;20537;-69
2023/06/20 09:34:19;;;;;;;5.03;3.78;;;;;;;27.19;100.00;100872.28;5276631;28;20746;-67
2023/06/20 09:36:51;;;;;;;5.65;3.92;;;;;;;27.22;100.00;100865.53;5273816;28;20033;-67
2023/06/20 09:39:23;;;;;;;5.72;4.05;;;;;;;27.27;100.00;100860.22;5269147;28;20493;-67
2023/06/20 09:41:55;;;;;;;5.83;3.87;;;;;;;27.32;100.00;100865.84;5270212;28;20439;-68
2023/06/20 09:44:28;;;;;;;5.70;4.25;;;;;;;27.40;100.00;100871.00;5287957;28;20101;-67
2023/06/20 09:47:00;;;;;;;5.80;3.70;;;;;;;27.47;100.00;100866.31;5277763;28;20158;-67
2023/06/20 09:49:34;;;;;;;4.53;3.85;;;;;;;27.32;100.00;100863.94;5272323;28;20115;-67
2023/06/20 09:52:14;;;;;;;6.88;4.07;;;;;;;27.27;100.00;100865.69;5264223;28;20025;-67
2023/06/20 09:55:00;;;;;;;4.85;3.70;;;;;;;27.54;100.00;100863.50;5276337;28;20032;-67
2023/06/20 09:57:46;;;;;;;6.00;3.67;;;;;;;27.60;100.00;100864.50;5270472;28;20415;-68
2023/06/20 10:00:19;;;;;;;4.15;3.28;;;;;;;27.44;100.00;100858.56;5272512;28;20052;-68
2023/06/20 10:02:52;;;;;;;5.47;3.30;;;;;;;27.52;100.00;100857.41;5278658;28;20549;-67
2023/06/20 10:05:25;;;;;;;6.05;3.15;;;;;;;27.48;100.00;100867.13;5271007;28;20491;-68
2023/06/20 10:07:57;;;;;;;4.75;3.30;;;;;;;27.54;100.00;100856.09;5265365;28;20055;-67
2023/06/20 10:10:28;;;;;;;5.07;3.13;;;;;;;27.60;100.00;100856.25;5270490;28;20445;-67
2023/06/20 10:13:00;;;;;;;4.47;3.30;;;;;;;27.73;100.00;100850.56;5277167;28;20028;-67
2023/06/20 10:15:32;;;;;;;5.88;3.42;;;;;;;27.69;100.00;100852.13;5267905;28;20448;-67
2023/06/20 10:18:18;;;;;;;4.05;2.88;;;;;;;27.88;100.00;100850.19;5276762;28;20121;-68
2023/06/20 10:20:49;;;;;;;3.63;3.10;;;;;;;27.75;100.00;100835.59;5276376;28;20029;-67
2023/06/20 10:23:30;;;;;;;4.43;2.90;;;;;;;27.88;100.00;100836.47;5271416;28;20039;-68
2023/06/20 10:26:04;;;;;;;6.78;3.13;;;;;;;27.94;100.00;100828.19;5279851;28;20024;-68
2023/06/20 10:28:39;;;;;;;3.53;2.70;;;;;;;27.96;100.00;100826.03;5274397;28;20036;-67
2023/06/20 10:31:10;;;;;;;5.25;3.28;;;;;;;28.01;100.00;100816.28;5276161;28;20367;-68
2023/06/20 10:33:45;;;;;;;4.63;2.65;;;;;;;28.18;100.00;100811.78;5284401;28;20033;-68
2023/06/20 10:36:16;;;;;;;4.45;2.70;;;;;;;28.15;100.00;100804.00;5272377;28;20056;-67
2023/06/20 10:38:51;;;;;;;5.63;2.63;;;;;;;28.16;100.00;100803.78;5276573;28;20521;-68
2023/06/20 10:41:24;;;;;;;3.55;2.40;;;;;;;27.98;100.00;100794.78;5283714;28;20036;-68
2023/06/20 10:43:57;;;;;;;3.47;2.30;;;;;;;28.03;100.00;100795.75;5263526;28;20556;-68
2023/06/20 10:46:34;;;;;;;3.35;2.35;;;;;;;28.34;100.00;100800.13;5272875;28;20032;-68
2023/06/20 10:49:10;;;;;;;4.25;2.30;;;;;;;28.38;100.00;100799.66;5270884;28;20050;-67
2023/06/20 10:51:57;;;;;;;3.20;1.95;;;;;;;28.39;100.00;100802.16;5268154;28;20115;-67
2023/06/20 10:54:35;;;;;;;10.93;2.50;;;;;;;28.38;100.00;100803.22;5267963;28;20390;-68
2023/06/20 10:57:07;;;;;;;2.97;2.20;;;;;;;28.37;100.00;100792.50;5270913;28;20054;-68
2023/06/20 10:59:38;;;;;;;7.55;2.50;;;;;;;28.38;100.00;100785.94;5270225;28;20021;-68
2023/06/20 11:02:11;;;;;;;2.33;1.60;;;;;;;28.38;100.00;100785.94;5268082;28;20025;-68
2023/06/20 11:04:44;;;;;;;3.08;2.00;;;;;;;28.52;100.00;100785.50;5266343;28;20116;-68
2023/06/20 11:07:15;;;;;;;4.25;2.30;;;;;;;28.62;100.00;100781.31;5268559;28;20525;-68
2023/06/20 11:09:47;;;;;;;4.47;2.30;;;;;;;28.73;100.00;100775.81;5275986;28;20104;-68
2023/06/20 11:12:18;;;;;;;5.75;2.08;;;;;;;28.82;100.00;100773.53;5267563;28;20025;-67
2023/06/20 11:14:49;;;;;;;3.92;2.05;;;;;;;28.97;100.00;100788.69;5268734;28;20387;-67
2023/06/20 11:17:29;;;;;;;4.05;2.30;;;;;;;29.02;100.00;100777.81;5273493;28;20024;-67
2023/06/20 11:20:01;;;;;;;4.53;2.45;;;;;;;29.06;100.00;100768.84;5272576;28;20032;-68
2023/06/20 11:22:33;;;;;;;3.70;2.20;;;;;;;29.13;100.00;100768.75;5274010;28;20024;-67
2023/06/20 11:25:06;;;;;;;4.13;2.35;;;;;;;29.18;100.00;100766.09;5273807;28;20024;-67
2023/06/20 11:27:38;;;;;;;4.05;2.35;;;;;;;29.13;100.00;100757.78;5269447;28;20112;-67
2023/06/20 11:30:10;;;;;;;5.07;2.00;;;;;;;29.16;100.00;100756.44;5274858;28;20509;-67
2023/06/20 11:32:58;;;;;;;5.28;2.22;;;;;;;29.33;100.00;100762.84;5270616;28;20025;-67
2023/06/20 11:35:52;;;;;;;4.72;2.20;;;;;;;29.26;100.00;100756.63;5265219;28;20032;-68
2023/06/20 11:38:28;;;;;;;3.50;2.13;;;;;;;29.34;100.00;100756.28;5268114;28;20039;-67